createdAt,value
2022-12-01T00:01:25.824Z,60.53
2022-12-01T00:03:53.677Z,68.45
2022-12-01T00:06:22.155Z,72.53
2022-12-01T00:09:13.088Z,72.13
2022-12-01T00:11:43.283Z,69.68
2022-12-01T00:14:10.510Z,66.97
2022-12-01T00:16:38.500Z,67.82
2022-12-01T00:19:05.592Z,68.90
2022-12-01T00:21:32.619Z,61.80
2022-12-01T00:23:59.611Z,67.03
2022-12-01T00:26:28.200Z,61.13
2022-12-01T00:28:58.761Z,67.90
2022-12-01T00:31:27.186Z,65.05
2022-12-01T00:33:55.120Z,66.25
2022-12-01T00:36:23.521Z,62.40
2022-12-01T00:38:57.261Z,63.13
2022-12-01T00:41:26.519Z,60.65
2022-12-01T00:43:53.634Z,60.83
2022-12-01T00:46:21.166Z,62.72
2022-12-01T00:48:49.263Z,64.35
2022-12-01T00:51:16.299Z,51.72
2022-12-01T00:53:43.363Z,55.40
2022-12-01T00:56:10.575Z,60.25
2022-12-01T00:58:37.611Z,59.38
2022-12-01T01:01:04.874Z,60.17
2022-12-01T01:03:33.989Z,58.92
2022-12-01T01:06:08.214Z,58.42
2022-12-01T01:08:36.043Z,58.92
2022-12-01T01:11:04.698Z,61.30
2022-12-01T01:13:32.491Z,61.65
2022-12-01T01:16:06.169Z,64.15
2022-12-01T01:18:34.144Z,66.53
2022-12-01T01:21:08.278Z,61.95
2022-12-01T01:23:38.368Z,68.07
2022-12-01T01:26:29.214Z,60.90
2022-12-01T01:28:59.921Z,58.72
2022-12-01T01:31:31.074Z,60.65
2022-12-01T01:33:59.116Z,65.43
2022-12-01T01:36:26.969Z,62.63
2022-12-01T01:38:55.234Z,66.70
2022-12-01T01:41:23.753Z,64.47
2022-12-01T01:43:57.551Z,64.93
2022-12-01T01:46:33.773Z,66.45
2022-12-01T01:49:14.762Z,67.15
2022-12-01T01:51:54.270Z,66.13
2022-12-01T01:54:29.106Z,66.20
2022-12-01T01:57:00.372Z,71.05
2022-12-01T01:59:39.506Z,72.60
2022-12-01T02:02:10.412Z,72.07
2022-12-01T02:04:47.331Z,76.05
2022-12-01T02:07:19.112Z,76.40
2022-12-01T02:09:46.870Z,80.82
2022-12-01T02:12:30.485Z,78.70
2022-12-01T02:15:07.701Z,60.13
2022-12-01T02:18:05.532Z,78.70
2022-12-01T02:21:00.411Z,68.95
2022-12-01T02:23:51.553Z,70.55
2022-12-01T02:26:33.732Z,68.57
2022-12-01T02:29:49.046Z,72.47
2022-12-01T02:32:47.378Z,63.03
2022-12-01T02:35:23.549Z,68.47
2022-12-01T02:37:50.585Z,68.10
2022-12-01T02:40:31.579Z,63.63
2022-12-01T02:43:10.278Z,63.30
2022-12-01T02:45:51.183Z,67.63
2022-12-01T02:48:34.185Z,68.13
2022-12-01T02:51:13.146Z,69.13
2022-12-01T02:53:41.964Z,70.63
2022-12-01T02:56:13.704Z,70.68
2022-12-01T02:58:42.080Z,65.20
2022-12-01T03:01:47.242Z,65.43
2022-12-01T03:04:39.081Z,63.83
2022-12-01T03:07:46.446Z,64.25
2022-12-01T03:10:49.634Z,67.88
2022-12-01T03:13:51.211Z,65.07
2022-12-01T03:16:36.828Z,62.70
2022-12-01T03:19:44.145Z,60.92
2022-12-01T03:22:13.523Z,65.65
2022-12-01T03:24:47.648Z,60.63
2022-12-01T03:27:19.763Z,66.70
2022-12-01T03:29:52.310Z,66.40
2022-12-01T03:32:32.238Z,68.90
2022-12-01T03:35:29.361Z,63.28
2022-12-01T03:38:10.098Z,67.13
2022-12-01T03:40:40.210Z,64.13
2022-12-01T03:43:15.922Z,57.78
2022-12-01T03:46:15.228Z,67.30
2022-12-01T03:48:42.747Z,66.20
2022-12-01T03:51:23.502Z,53.25
2022-12-01T03:54:18.265Z,58.30
2022-12-01T03:56:59.309Z,55.35
2022-12-01T03:59:29.164Z,51.78
2022-12-01T04:01:58.207Z,51.42
2022-12-01T04:04:25.349Z,59.40
2022-12-01T04:06:53.070Z,48.92
2022-12-01T04:09:20.035Z,53.85
2022-12-01T04:12:05.974Z,54.67
2022-12-01T04:14:34.039Z,50.83
2022-12-01T04:17:01.051Z,49.03
2022-12-01T04:19:29.084Z,49.08
2022-12-01T04:21:56.077Z,48.05
2022-12-01T04:24:23.115Z,47.17
2022-12-01T04:26:50.118Z,47.70
2022-12-01T04:29:17.137Z,49.25
2022-12-01T04:31:44.247Z,44.88
2022-12-01T04:34:11.430Z,45.60
2022-12-01T04:36:39.498Z,49.08
2022-12-01T04:39:06.564Z,45.00
2022-12-01T04:41:33.763Z,46.80
2022-12-01T04:44:00.878Z,44.92
2022-12-01T04:46:27.852Z,44.67
2022-12-01T04:48:54.930Z,43.40
2022-12-01T04:51:22.328Z,46.08
2022-12-01T04:53:51.106Z,41.08
2022-12-01T04:56:19.718Z,46.53
2022-12-01T04:58:46.902Z,43.97
2022-12-01T05:01:17.597Z,40.22
2022-12-01T05:03:49.517Z,44.20
2022-12-01T05:06:27.389Z,36.97
2022-12-01T05:08:59.357Z,41.85
2022-12-01T05:11:29.266Z,36.28
2022-12-01T05:13:56.992Z,37.67
2022-12-01T05:16:28.511Z,36.67
2022-12-01T05:19:20.308Z,39.13
2022-12-01T05:21:49.354Z,41.47
2022-12-01T05:24:17.745Z,40.50
2022-12-01T05:26:45.889Z,40.85
2022-12-01T05:29:13.959Z,39.22
2022-12-01T05:31:41.592Z,41.35
2022-12-01T05:34:09.380Z,42.15
2022-12-01T05:36:36.863Z,37.80
2022-12-01T05:39:04.958Z,39.55
2022-12-01T05:41:32.172Z,47.63
2022-12-01T05:43:59.181Z,44.65
2022-12-01T05:46:26.354Z,46.97
2022-12-01T05:48:53.462Z,45.38
2022-12-01T05:51:20.678Z,50.67
2022-12-01T05:53:48.516Z,54.17
2022-12-01T05:56:15.556Z,47.25
2022-12-01T05:58:42.670Z,50.13
2022-12-01T06:01:09.817Z,53.83
2022-12-01T06:03:36.810Z,50.80
2022-12-01T06:06:03.966Z,56.50
2022-12-01T06:08:30.939Z,52.92
2022-12-01T06:10:58.510Z,49.33
2022-12-01T06:13:25.860Z,53.30
2022-12-01T06:16:02.542Z,49.55
2022-12-01T06:18:38.514Z,53.78
2022-12-01T06:21:06.879Z,58.15
2022-12-01T06:23:34.694Z,57.55
2022-12-01T06:26:01.938Z,53.10
2022-12-01T06:28:30.135Z,57.00
2022-12-01T06:31:02.732Z,48.78
2022-12-01T06:33:32.017Z,51.97
2022-12-01T06:36:06.858Z,53.85
2022-12-01T06:38:36.494Z,51.60
2022-12-01T06:41:05.388Z,51.03
2022-12-01T06:43:40.233Z,55.03
2022-12-01T06:46:07.397Z,48.95
2022-12-01T06:48:34.765Z,48.42
2022-12-01T06:51:02.581Z,49.15
2022-12-01T06:53:30.151Z,47.65
2022-12-01T06:56:05.379Z,43.28
2022-12-01T06:58:32.956Z,50.30
2022-12-01T07:01:00.769Z,51.35
2022-12-01T07:03:27.769Z,49.42
2022-12-01T07:06:01.150Z,45.28
2022-12-01T07:08:30.373Z,46.78
2022-12-01T07:11:03.097Z,44.42
2022-12-01T07:13:33.638Z,50.30
2022-12-01T07:16:05.947Z,57.08
2022-12-01T07:18:34.861Z,55.78
2022-12-01T07:21:04.563Z,52.20
2022-12-01T07:23:33.331Z,49.95
2022-12-01T07:26:11.064Z,47.05
2022-12-01T07:28:39.601Z,56.58
2022-12-01T07:31:10.918Z,49.00
2022-12-01T07:33:38.674Z,51.65
2022-12-01T07:36:07.452Z,52.88
2022-12-01T07:38:35.806Z,51.97
2022-12-01T07:41:07.024Z,56.40
2022-12-01T07:43:35.386Z,51.92
2022-12-01T07:46:23.976Z,53.92
2022-12-01T07:48:52.802Z,58.63
2022-12-01T07:51:22.250Z,52.00
2022-12-01T07:53:51.817Z,49.50
2022-12-01T07:56:20.401Z,54.10
2022-12-01T07:58:47.529Z,53.20
2022-12-01T08:01:19.206Z,54.33
2022-12-01T08:03:55.618Z,58.95
2022-12-01T08:06:25.469Z,58.65
2022-12-01T08:08:53.421Z,58.65
2022-12-01T08:11:29.511Z,59.35
2022-12-01T08:13:57.516Z,59.88
2022-12-01T08:16:25.856Z,59.30
2022-12-01T08:18:53.661Z,56.30
2022-12-01T08:21:24.118Z,64.38
2022-12-01T08:23:58.450Z,64.78
2022-12-01T08:26:27.336Z,65.60
2022-12-01T08:28:54.622Z,62.13
2022-12-01T08:31:29.369Z,57.92
2022-12-01T08:33:58.006Z,61.55
2022-12-01T08:36:26.618Z,57.35
2022-12-01T08:38:56.217Z,59.80
2022-12-01T08:41:24.722Z,63.58
2022-12-01T08:44:00.769Z,59.13
2022-12-01T08:46:33.128Z,66.53
2022-12-01T08:49:01.363Z,67.50
2022-12-01T08:51:28.757Z,64.22
2022-12-01T08:53:57.956Z,58.70
2022-12-01T08:56:33.442Z,65.18
2022-12-01T08:59:01.095Z,64.95
2022-12-01T09:01:29.319Z,62.53
2022-12-01T09:04:10.447Z,67.13
2022-12-01T09:06:44.348Z,65.28
2022-12-01T09:09:16.648Z,72.13
2022-12-01T09:11:45.707Z,63.90
2022-12-01T09:14:15.339Z,59.33
2022-12-01T09:16:44.931Z,58.38
2022-12-01T09:19:17.901Z,54.33
2022-12-01T09:21:49.169Z,52.95
2022-12-01T09:24:16.672Z,55.42
2022-12-01T09:26:43.727Z,54.72
2022-12-01T09:29:14.986Z,56.35
2022-12-01T09:31:43.765Z,55.90
2022-12-01T09:34:17.816Z,59.88
2022-12-01T09:36:46.661Z,58.03
2022-12-01T09:39:20.654Z,64.30
2022-12-01T09:42:07.673Z,59.05
2022-12-01T09:44:53.098Z,51.67
2022-12-01T09:47:33.816Z,71.18
2022-12-01T09:50:20.151Z,56.67
2022-12-01T09:52:59.132Z,53.95
2022-12-01T09:55:30.288Z,55.83
2022-12-01T09:58:00.995Z,56.20
2022-12-01T10:00:35.328Z,53.95
2022-12-01T10:03:46.425Z,61.20
2022-12-01T10:06:29.578Z,60.80
2022-12-01T10:09:24.487Z,56.75
2022-12-01T10:12:01.573Z,54.13
2022-12-01T10:14:33.431Z,55.00
2022-12-01T10:17:32.288Z,63.28
2022-12-01T10:20:21.978Z,53.33
2022-12-01T10:23:36.990Z,54.88
2022-12-01T10:26:14.725Z,58.50
2022-12-01T10:29:03.811Z,57.05
2022-12-01T10:32:25.953Z,58.75
2022-12-01T10:34:54.011Z,54.50
2022-12-01T10:37:27.069Z,59.45
2022-12-01T10:39:58.462Z,59.30
2022-12-01T10:42:34.201Z,56.97
2022-12-01T10:45:06.547Z,55.47
2022-12-01T10:47:34.030Z,56.15
2022-12-01T10:50:04.150Z,56.75
2022-12-01T10:52:36.817Z,59.80
2022-12-01T10:55:23.837Z,53.55
2022-12-01T10:57:54.154Z,55.65
2022-12-01T11:00:58.193Z,56.75
2022-12-01T11:03:25.798Z,51.75
2022-12-01T11:05:58.262Z,55.13
2022-12-01T11:08:44.227Z,50.78
2022-12-01T11:11:36.625Z,51.67
2022-12-01T11:14:18.469Z,53.20
2022-12-01T11:16:50.367Z,52.88
2022-12-01T11:19:34.411Z,52.50
2022-12-01T11:22:23.846Z,55.90
2022-12-01T11:24:53.546Z,49.83
2022-12-01T11:27:28.478Z,49.80
2022-12-01T11:30:05.123Z,51.17
2022-12-01T11:32:39.984Z,48.92
2022-12-01T11:35:19.315Z,48.22
2022-12-01T11:38:28.299Z,49.40
2022-12-01T11:40:58.496Z,50.72
2022-12-01T11:43:32.052Z,52.28
2022-12-01T11:46:05.843Z,53.20
2022-12-01T11:48:36.201Z,48.20
2022-12-01T11:51:20.328Z,48.65
2022-12-01T11:53:47.504Z,45.10
2022-12-01T11:56:20.730Z,51.30
2022-12-01T11:58:54.177Z,52.53
2022-12-01T12:01:50.546Z,53.97
2022-12-01T12:04:29.939Z,48.95
2022-12-01T12:07:00.079Z,49.35
2022-12-01T12:09:52.118Z,44.08
2022-12-01T12:12:40.496Z,50.70
2022-12-01T12:15:40.120Z,47.30
2022-12-01T12:18:45.817Z,51.00
2022-12-01T12:21:29.035Z,49.38
2022-12-01T12:24:19.568Z,46.08
2022-12-01T12:27:13.164Z,51.40
2022-12-01T12:30:26.150Z,46.72
2022-12-01T12:33:08.587Z,47.67
2022-12-01T12:35:53.102Z,50.78
2022-12-01T12:38:25.974Z,53.38
2022-12-01T12:41:29.506Z,48.05
2022-12-01T12:44:24.793Z,44.72
2022-12-01T12:47:06.264Z,46.85
2022-12-01T12:50:14.790Z,50.38
2022-12-01T12:52:49.008Z,43.47
2022-12-01T12:55:41.422Z,45.17
2022-12-01T12:58:20.425Z,45.75
2022-12-01T13:01:06.863Z,45.22
2022-12-01T13:03:56.341Z,48.63
2022-12-01T13:06:52.904Z,46.22
2022-12-01T13:09:44.430Z,44.47
2022-12-01T13:12:26.075Z,41.08
2022-12-01T13:15:20.276Z,47.80
2022-12-01T13:18:25.222Z,46.58
2022-12-01T13:20:55.752Z,50.00
2022-12-01T13:23:26.058Z,52.30
2022-12-01T13:25:57.750Z,49.13
2022-12-01T13:28:46.289Z,52.90
2022-12-01T13:31:16.600Z,51.33
2022-12-01T13:33:59.022Z,51.63
2022-12-01T13:39:22.623Z,48.88
2022-12-01T13:42:24.121Z,51.78
2022-12-01T13:45:01.595Z,52.38
2022-12-01T13:47:46.930Z,52.03
2022-12-01T13:50:47.778Z,52.60
2022-12-01T13:53:17.852Z,49.50
2022-12-01T13:56:04.302Z,47.63
2022-12-01T13:58:34.124Z,50.13
2022-12-01T14:01:20.473Z,84.57
2022-12-01T14:04:22.574Z,47.42
2022-12-01T14:07:16.635Z,47.03
2022-12-01T14:09:44.147Z,46.97
2022-12-01T14:12:11.226Z,48.15
2022-12-01T14:15:21.752Z,48.75
2022-12-01T14:18:27.483Z,51.50
2022-12-01T14:20:54.943Z,45.50
2022-12-01T14:23:29.234Z,46.97
2022-12-01T14:26:21.051Z,47.28
2022-12-01T14:29:02.774Z,42.85
2022-12-01T14:31:32.969Z,43.95
2022-12-01T14:34:11.213Z,43.85
2022-12-01T14:36:48.730Z,43.72
2022-12-01T14:39:27.288Z,51.35
2022-12-01T14:42:02.997Z,47.60
2022-12-01T14:44:33.007Z,45.65
2022-12-01T14:47:10.883Z,45.47
2022-12-01T14:50:13.118Z,48.30
2022-12-01T14:52:46.417Z,48.00
2022-12-01T14:55:24.985Z,45.72
2022-12-01T14:58:07.069Z,47.97
2022-12-01T15:00:38.008Z,49.97
2022-12-01T15:03:13.030Z,50.80
2022-12-01T15:05:43.821Z,48.63
2022-12-01T15:08:41.896Z,48.55
2022-12-01T15:11:25.928Z,52.10
2022-12-01T15:13:57.966Z,52.20
2022-12-01T15:16:30.474Z,53.60
2022-12-01T15:18:58.395Z,55.38
2022-12-01T15:21:31.841Z,50.42
2022-12-01T15:24:00.290Z,53.00
2022-12-01T15:26:37.331Z,52.40
2022-12-01T15:29:31.517Z,54.22
2022-12-01T15:32:21.899Z,51.22
2022-12-01T15:34:54.042Z,52.33
2022-12-01T15:37:27.515Z,47.78
2022-12-01T15:43:06.739Z,45.55
2022-12-01T15:46:13.491Z,42.58
2022-12-01T15:48:41.852Z,41.05
2022-12-01T15:51:27.893Z,46.85
2022-12-01T15:54:01.852Z,41.45
2022-12-01T15:56:36.981Z,40.80
2022-12-01T15:59:13.303Z,41.17
2022-12-01T16:01:44.195Z,38.53
2022-12-01T16:04:28.450Z,44.40
2022-12-01T16:07:08.122Z,40.63
2022-12-01T16:09:39.601Z,35.67
2022-12-01T16:12:09.407Z,41.10
2022-12-01T16:14:37.151Z,37.50
2022-12-01T16:17:11.123Z,38.05
2022-12-01T16:19:39.074Z,40.47
2022-12-01T16:22:12.220Z,40.08
2022-12-01T16:24:55.260Z,35.28
2022-12-01T16:27:25.436Z,36.38
2022-12-01T16:30:19.012Z,36.95
2022-12-01T16:32:48.701Z,36.63
2022-12-01T16:35:23.562Z,34.88
2022-12-01T16:37:50.722Z,35.83
2022-12-01T16:40:18.845Z,37.33
2022-12-01T16:42:46.220Z,37.25
2022-12-01T16:45:14.938Z,40.05
2022-12-01T16:47:44.063Z,36.38
2022-12-01T16:50:19.788Z,36.03
2022-12-01T16:52:47.258Z,35.80
2022-12-01T16:55:30.084Z,33.45
2022-12-01T16:57:57.177Z,34.28
2022-12-01T17:00:24.542Z,36.33
2022-12-01T17:02:52.795Z,37.58
2022-12-01T17:05:20.157Z,36.20
2022-12-01T17:07:48.332Z,39.13
2022-12-01T17:10:15.998Z,37.25
2022-12-01T17:12:43.018Z,40.70
2022-12-01T17:15:11.420Z,35.05
2022-12-01T17:17:38.627Z,32.33
2022-12-01T17:20:08.860Z,37.08
2022-12-01T17:22:36.886Z,37.30
2022-12-01T17:25:06.346Z,39.20
2022-12-01T17:27:33.411Z,36.97
2022-12-01T17:30:02.399Z,41.55
2022-12-01T17:32:29.518Z,38.97
2022-12-01T17:34:56.546Z,40.40
2022-12-01T17:37:31.470Z,40.88
2022-12-01T17:39:58.606Z,44.58
2022-12-01T17:42:25.606Z,44.05
2022-12-01T17:44:52.953Z,39.05
2022-12-01T17:47:20.051Z,40.58
2022-12-01T17:49:47.007Z,39.28
2022-12-01T17:52:14.259Z,40.38
2022-12-01T17:54:41.423Z,42.95
2022-12-01T17:57:08.550Z,42.75
2022-12-01T17:59:42.514Z,42.53
2022-12-01T18:02:12.827Z,44.17
2022-12-01T18:04:40.246Z,40.45
2022-12-01T18:07:07.922Z,43.33
2022-12-01T18:09:34.994Z,43.80
2022-12-01T18:12:03.508Z,42.92
2022-12-01T18:14:31.030Z,45.40
2022-12-01T18:16:58.186Z,44.65
2022-12-01T18:19:25.215Z,45.55
2022-12-01T18:21:52.387Z,41.63
2022-12-01T18:24:19.508Z,42.40
2022-12-01T18:26:46.644Z,39.65
2022-12-01T18:29:25.732Z,37.25
2022-12-01T18:31:55.252Z,39.15
2022-12-01T18:34:24.186Z,41.30
2022-12-01T18:36:51.272Z,43.60
2022-12-01T18:39:18.579Z,43.63
2022-12-01T18:41:45.653Z,43.88
2022-12-01T18:44:13.307Z,44.30
2022-12-01T18:46:43.105Z,42.28
2022-12-01T18:49:11.554Z,41.30
2022-12-01T18:51:39.711Z,43.75
2022-12-01T18:54:13.458Z,46.28
2022-12-01T18:56:40.676Z,41.67
2022-12-01T18:59:12.943Z,42.67
2022-12-01T19:01:44.217Z,41.95
2022-12-01T19:04:13.690Z,44.33
2022-12-01T19:06:45.547Z,41.75
2022-12-01T19:09:16.760Z,45.08
2022-12-01T19:11:44.088Z,46.83
2022-12-01T19:14:16.779Z,44.35
2022-12-01T19:16:47.817Z,49.28
2022-12-01T19:19:15.625Z,50.75
2022-12-01T19:21:45.013Z,50.78
2022-12-01T19:24:13.572Z,49.72
2022-12-01T19:26:40.779Z,58.50
2022-12-01T19:29:07.988Z,53.80
2022-12-01T19:31:35.201Z,54.30
2022-12-01T19:34:04.199Z,60.92
2022-12-01T19:36:31.280Z,57.08
2022-12-01T19:39:00.462Z,58.72
2022-12-01T19:41:29.593Z,56.38
2022-12-01T19:43:58.370Z,58.13
2022-12-01T19:46:27.551Z,59.42
2022-12-01T19:49:00.295Z,60.63
2022-12-01T19:51:33.493Z,63.75
2022-12-01T19:54:02.159Z,68.38
2022-12-01T19:56:29.395Z,61.53
2022-12-01T19:58:57.347Z,66.60
2022-12-01T20:01:25.466Z,60.60
2022-12-01T20:03:54.154Z,64.30
2022-12-01T20:06:25.785Z,65.68
2022-12-01T20:08:57.145Z,68.68
2022-12-01T20:11:25.083Z,63.08
2022-12-01T20:13:53.266Z,64.68
2022-12-01T20:16:24.171Z,72.75
2022-12-01T20:18:52.853Z,68.78
2022-12-01T20:21:30.440Z,68.28
2022-12-01T20:24:05.205Z,67.28
2022-12-01T20:26:40.278Z,68.45
2022-12-01T20:29:16.710Z,64.00
2022-12-01T20:31:44.454Z,69.45
2022-12-01T20:34:19.309Z,66.80
2022-12-01T20:36:46.722Z,77.45
2022-12-01T20:39:15.760Z,74.63
2022-12-01T20:41:43.952Z,73.10
2022-12-01T20:44:12.354Z,71.82
2022-12-01T20:46:41.077Z,76.75
2022-12-01T20:49:08.440Z,80.65
2022-12-01T20:51:35.533Z,78.22
2022-12-01T20:54:27.241Z,78.05
2022-12-01T20:56:53.009Z,74.60
2022-12-01T20:59:20.191Z,73.05
2022-12-01T21:01:47.539Z,81.57
2022-12-01T21:04:14.732Z,75.75
2022-12-01T21:06:42.243Z,74.53
2022-12-01T21:09:09.710Z,77.70
2022-12-01T21:12:05.446Z,83.57
2022-12-01T21:14:59.711Z,77.20
2022-12-01T21:17:42.746Z,78.95
2022-12-01T21:20:44.763Z,75.32
2022-12-01T21:23:15.935Z,83.30
2022-12-01T21:25:43.886Z,79.05
2022-12-01T21:28:19.052Z,78.20
2022-12-01T21:30:47.929Z,81.75
2022-12-01T21:33:28.573Z,80.05
2022-12-01T21:35:56.897Z,88.90
2022-12-01T21:38:25.168Z,84.50
2022-12-01T21:40:52.407Z,79.50
2022-12-01T21:43:24.139Z,87.97
2022-12-01T21:46:00.301Z,81.85
2022-12-01T21:48:36.293Z,81.68
2022-12-01T21:51:23.381Z,79.60
2022-12-01T21:53:55.585Z,78.93
2022-12-01T21:56:28.621Z,71.82
2022-12-01T21:59:06.200Z,76.80
2022-12-01T22:01:34.677Z,73.55
2022-12-01T22:04:15.044Z,72.40
2022-12-01T22:06:48.080Z,73.07
2022-12-01T22:09:25.056Z,76.85
2022-12-01T22:12:00.024Z,76.90
2022-12-01T22:14:35.071Z,75.80
2022-12-01T22:17:22.421Z,70.20
2022-12-01T22:20:02.413Z,76.65
2022-12-01T22:22:32.551Z,68.35
2022-12-01T22:25:26.301Z,75.22
2022-12-01T22:27:53.641Z,73.90
2022-12-01T22:30:23.734Z,78.45
2022-12-01T22:33:00.684Z,74.78
2022-12-01T22:35:38.784Z,75.95
2022-12-01T22:38:05.796Z,74.45
2022-12-01T22:40:39.627Z,78.78
2022-12-01T22:43:15.582Z,74.47
2022-12-01T22:45:47.347Z,77.82
2022-12-01T22:48:40.324Z,73.72
2022-12-01T22:51:23.777Z,76.30
2022-12-01T22:53:59.191Z,76.97
2022-12-01T22:56:33.701Z,77.65
2022-12-01T23:01:33.731Z,79.53
2022-12-01T23:04:24.285Z,79.88
2022-12-01T23:06:55.601Z,80.30
2022-12-01T23:09:27.642Z,76.70
2022-12-01T23:12:05.562Z,75.13
2022-12-01T23:14:34.771Z,79.03
2022-12-01T23:17:23.343Z,75.53
2022-12-01T23:19:54.210Z,74.68
2022-12-01T23:22:21.367Z,78.90
2022-12-01T23:24:48.745Z,76.15
2022-12-01T23:27:17.855Z,82.90
2022-12-01T23:29:45.201Z,78.07
2022-12-01T23:32:12.802Z,80.57
2022-12-01T23:34:39.984Z,70.18
2022-12-01T23:37:28.826Z,71.05
2022-12-01T23:39:56.218Z,72.20
2022-12-01T23:42:23.364Z,75.30
2022-12-01T23:44:51.049Z,72.32
2022-12-01T23:47:30.177Z,70.28
2022-12-01T23:50:06.643Z,69.15
2022-12-01T23:52:36.412Z,71.50
2022-12-01T23:55:20.795Z,65.88
2022-12-01T23:57:48.667Z,67.80
